Strona główna
METAR-TAF:

METAR-TAF

Lotnisko :

Indianapolis, Indiana, Stany Zjednoczone

Szerokość geograficzna: 39-50-37N, Długość geograficzna: 085-53-49W, wysokość: 263 m

Aktualna obserwacja pogody

Raport powstał 7 minut temu, godzina 02:15 UTC
Wiatr 3 kt od wschód
Temperatura -2°C
Wilgotność 100%
Ciśnienie 1020 hPa
Widzialność: 16.1 km
bezchmurnie

METAR: KMQJ 170215Z AUTO 08003KT 10SM CLR M02/M02 A3012 RMK AO1

czas: 19:22 (02:22 UTC)


TAF: brakujący

Obserwacja i prognoza pogody dla ponad 4000 lotnisk (raport METAR i TAF).

Dostępne stacje oznaczono żółtymi i czerwonymi punktami na mapie.

Najedź kursorem aby zobaczyć nazwę stacji.

Kliknij aby zobaczyć obserwacje i prognozy pogody.

Aby zmienić mapę: kliknij na zielony przycisk z czarnym krzyżykiem, aby powiększyć; na zielony przycisk z myślnikiem, aby pomniejszyć; na zielone strzałki, aby przejść do map sąsiednich.


METAR-TAF: